sensor_id;sensor_type;location;lat;lon;timestamp;P1;durP1;ratioP1;P2;durP2;ratioP2
4053;SDS011;2042;47.956;9.222;2022-07-23T00:00:09;23.33;;;20.10;;
4053;SDS011;2042;47.956;9.222;2022-07-23T00:02:35;21.53;;;18.40;;
4053;SDS011;2042;47.956;9.222;2022-07-23T00:05:01;21.57;;;18.27;;
4053;SDS011;2042;47.956;9.222;2022-07-23T00:07:27;22.90;;;18.20;;
4053;SDS011;2042;47.956;9.222;2022-07-23T00:09:53;22.53;;;17.30;;
4053;SDS011;2042;47.956;9.222;2022-07-23T00:12:18;21.10;;;18.50;;
4053;SDS011;2042;47.956;9.222;2022-07-23T00:14:45;27.00;;;18.40;;
4053;SDS011;2042;47.956;9.222;2022-07-23T00:17:10;22.90;;;17.70;;
4053;SDS011;2042;47.956;9.222;2022-07-23T00:19:36;27.50;;;20.30;;
4053;SDS011;2042;47.956;9.222;2022-07-23T00:22:02;24.40;;;18.77;;
4053;SDS011;2042;47.956;9.222;2022-07-23T00:24:27;22.50;;;18.17;;
4053;SDS011;2042;47.956;9.222;2022-07-23T00:26:53;21.10;;;17.00;;
4053;SDS011;2042;47.956;9.222;2022-07-23T00:29:19;21.20;;;17.40;;
4053;SDS011;2042;47.956;9.222;2022-07-23T00:31:45;22.07;;;18.07;;
4053;SDS011;2042;47.956;9.222;2022-07-23T00:34:10;27.70;;;18.50;;
4053;SDS011;2042;47.956;9.222;2022-07-23T00:36:36;22.20;;;18.17;;
4053;SDS011;2042;47.956;9.222;2022-07-23T00:39:02;22.87;;;18.83;;
4053;SDS011;2042;47.956;9.222;2022-07-23T00:41:28;25.50;;;18.97;;
4053;SDS011;2042;47.956;9.222;2022-07-23T00:43:53;24.30;;;18.47;;
4053;SDS011;2042;47.956;9.222;2022-07-23T00:46:20;22.40;;;17.80;;
4053;SDS011;2042;47.956;9.222;2022-07-23T00:48:46;25.43;;;17.53;;
4053;SDS011;2042;47.956;9.222;2022-07-23T00:51:14;21.43;;;18.53;;
4053;SDS011;2042;47.956;9.222;2022-07-23T00:53:41;23.70;;;18.53;;
4053;SDS011;2042;47.956;9.222;2022-07-23T00:56:07;24.63;;;18.63;;
4053;SDS011;2042;47.956;9.222;2022-07-23T00:58:34;23.80;;;19.10;;
4053;SDS011;2042;47.956;9.222;2022-07-23T01:01:00;27.10;;;20.37;;
4053;SDS011;2042;47.956;9.222;2022-07-23T01:03:27;25.77;;;19.33;;
4053;SDS011;2042;47.956;9.222;2022-07-23T01:05:53;25.80;;;19.50;;
4053;SDS011;2042;47.956;9.222;2022-07-23T01:08:18;31.07;;;19.97;;
4053;SDS011;2042;47.956;9.222;2022-07-23T01:10:45;31.43;;;19.40;;
4053;SDS011;2042;47.956;9.222;2022-07-23T01:13:13;26.93;;;19.90;;
4053;SDS011;2042;47.956;9.222;2022-07-23T01:15:39;22.07;;;19.03;;
4053;SDS011;2042;47.956;9.222;2022-07-23T01:18:05;25.97;;;21.03;;
4053;SDS011;2042;47.956;9.222;2022-07-23T01:20:32;25.90;;;18.33;;
4053;SDS011;2042;47.956;9.222;2022-07-23T01:22:58;24.37;;;18.17;;
4053;SDS011;2042;47.956;9.222;2022-07-23T01:25:24;24.30;;;18.60;;
4053;SDS011;2042;47.956;9.222;2022-07-23T01:27:53;23.27;;;17.43;;
4053;SDS011;2042;47.956;9.222;2022-07-23T01:30:19;26.77;;;18.73;;
4053;SDS011;2042;47.956;9.222;2022-07-23T01:32:45;20.83;;;16.47;;
4053;SDS011;2042;47.956;9.222;2022-07-23T01:35:12;22.07;;;17.60;;
4053;SDS011;2042;47.956;9.222;2022-07-23T01:37:37;22.57;;;18.90;;
4053;SDS011;2042;47.956;9.222;2022-07-23T01:40:04;23.10;;;18.60;;
4053;SDS011;2042;47.956;9.222;2022-07-23T01:42:30;22.33;;;16.47;;
4053;SDS011;2042;47.956;9.222;2022-07-23T01:44:55;26.67;;;17.17;;
4053;SDS011;2042;47.956;9.222;2022-07-23T01:47:21;20.47;;;15.97;;
4053;SDS011;2042;47.956;9.222;2022-07-23T01:49:47;20.63;;;16.10;;
4053;SDS011;2042;47.956;9.222;2022-07-23T01:52:13;22.13;;;16.43;;
4053;SDS011;2042;47.956;9.222;2022-07-23T01:54:39;22.13;;;15.73;;
4053;SDS011;2042;47.956;9.222;2022-07-23T01:57:05;21.23;;;16.80;;
4053;SDS011;2042;47.956;9.222;2022-07-23T01:59:33;23.93;;;15.43;;
4053;SDS011;2042;47.956;9.222;2022-07-23T02:01:59;22.70;;;17.13;;
4053;SDS011;2042;47.956;9.222;2022-07-23T02:04:24;22.70;;;16.73;;
4053;SDS011;2042;47.956;9.222;2022-07-23T02:06:51;21.47;;;16.97;;
4053;SDS011;2042;47.956;9.222;2022-07-23T02:09:17;27.47;;;16.17;;
4053;SDS011;2042;47.956;9.222;2022-07-23T02:11:44;21.90;;;16.27;;
4053;SDS011;2042;47.956;9.222;2022-07-23T02:14:09;23.07;;;16.80;;
4053;SDS011;2042;47.956;9.222;2022-07-23T02:16:35;20.00;;;14.37;;
4053;SDS011;2042;47.956;9.222;2022-07-23T02:19:01;22.20;;;16.30;;
4053;SDS011;2042;47.956;9.222;2022-07-23T02:21:28;23.33;;;16.70;;
4053;SDS011;2042;47.956;9.222;2022-07-23T02:23:54;19.97;;;14.90;;
4053;SDS011;2042;47.956;9.222;2022-07-23T02:26:19;26.60;;;15.47;;
4053;SDS011;2042;47.956;9.222;2022-07-23T02:28:45;21.87;;;16.80;;
4053;SDS011;2042;47.956;9.222;2022-07-23T02:31:11;25.90;;;18.10;;
4053;SDS011;2042;47.956;9.222;2022-07-23T02:33:36;22.03;;;16.03;;
4053;SDS011;2042;47.956;9.222;2022-07-23T02:36:02;29.97;;;17.27;;
4053;SDS011;2042;47.956;9.222;2022-07-23T02:38:28;25.87;;;17.97;;
4053;SDS011;2042;47.956;9.222;2022-07-23T02:40:54;23.57;;;17.73;;
4053;SDS011;2042;47.956;9.222;2022-07-23T02:43:19;28.00;;;16.77;;
4053;SDS011;2042;47.956;9.222;2022-07-23T02:45:45;28.53;;;18.77;;
4053;SDS011;2042;47.956;9.222;2022-07-23T02:48:11;20.50;;;16.30;;
4053;SDS011;2042;47.956;9.222;2022-07-23T02:50:37;27.30;;;17.07;;
4053;SDS011;2042;47.956;9.222;2022-07-23T02:53:03;26.97;;;17.33;;
4053;SDS011;2042;47.956;9.222;2022-07-23T02:55:29;24.90;;;17.27;;
4053;SDS011;2042;47.956;9.222;2022-07-23T02:57:56;28.60;;;18.50;;
4053;SDS011;2042;47.956;9.222;2022-07-23T03:00:22;21.33;;;17.10;;
4053;SDS011;2042;47.956;9.222;2022-07-23T03:02:48;31.47;;;19.63;;
4053;SDS011;2042;47.956;9.222;2022-07-23T03:05:13;24.67;;;15.87;;
4053;SDS011;2042;47.956;9.222;2022-07-23T03:07:39;24.37;;;17.80;;
4053;SDS011;2042;47.956;9.222;2022-07-23T03:10:05;25.73;;;16.57;;
4053;SDS011;2042;47.956;9.222;2022-07-23T03:12:31;21.07;;;15.40;;
4053;SDS011;2042;47.956;9.222;2022-07-23T03:14:56;20.67;;;16.20;;
4053;SDS011;2042;47.956;9.222;2022-07-23T03:17:22;27.93;;;18.07;;
4053;SDS011;2042;47.956;9.222;2022-07-23T03:19:48;23.83;;;16.80;;
4053;SDS011;2042;47.956;9.222;2022-07-23T03:22:14;23.97;;;16.20;;
4053;SDS011;2042;47.956;9.222;2022-07-23T03:24:40;25.37;;;17.90;;
4053;SDS011;2042;47.956;9.222;2022-07-23T03:27:26;21.80;;;16.80;;
4053;SDS011;2042;47.956;9.222;2022-07-23T03:29:54;20.83;;;16.50;;
4053;SDS011;2042;47.956;9.222;2022-07-23T03:32:21;21.40;;;17.10;;
4053;SDS011;2042;47.956;9.222;2022-07-23T03:34:48;24.97;;;16.63;;
4053;SDS011;2042;47.956;9.222;2022-07-23T03:37:14;23.83;;;16.80;;
4053;SDS011;2042;47.956;9.222;2022-07-23T03:39:40;19.80;;;16.57;;
4053;SDS011;2042;47.956;9.222;2022-07-23T03:42:06;21.77;;;16.50;;
4053;SDS011;2042;47.956;9.222;2022-07-23T03:44:32;24.63;;;15.87;;
4053;SDS011;2042;47.956;9.222;2022-07-23T03:46:58;22.07;;;15.37;;
4053;SDS011;2042;47.956;9.222;2022-07-23T03:49:24;27.03;;;17.03;;
4053;SDS011;2042;47.956;9.222;2022-07-23T03:51:50;23.17;;;16.57;;
4053;SDS011;2042;47.956;9.222;2022-07-23T03:54:16;23.70;;;15.93;;
4053;SDS011;2042;47.956;9.222;2022-07-23T03:56:41;29.80;;;18.07;;
4053;SDS011;2042;47.956;9.222;2022-07-23T03:59:08;23.40;;;16.47;;
4053;SDS011;2042;47.956;9.222;2022-07-23T04:01:34;24.73;;;16.13;;
4053;SDS011;2042;47.956;9.222;2022-07-23T04:04:00;24.63;;;17.57;;
4053;SDS011;2042;47.956;9.222;2022-07-23T04:06:26;23.17;;;15.67;;
4053;SDS011;2042;47.956;9.222;2022-07-23T04:08:52;20.30;;;15.83;;
4053;SDS011;2042;47.956;9.222;2022-07-23T04:11:18;22.97;;;16.80;;
4053;SDS011;2042;47.956;9.222;2022-07-23T04:13:44;20.10;;;15.77;;
4053;SDS011;2042;47.956;9.222;2022-07-23T04:16:09;23.10;;;17.90;;
4053;SDS011;2042;47.956;9.222;2022-07-23T04:18:35;25.67;;;15.93;;
4053;SDS011;2042;47.956;9.222;2022-07-23T04:21:00;23.57;;;14.70;;
4053;SDS011;2042;47.956;9.222;2022-07-23T04:23:26;22.27;;;15.23;;
4053;SDS011;2042;47.956;9.222;2022-07-23T04:25:52;16.17;;;14.30;;
4053;SDS011;2042;47.956;9.222;2022-07-23T04:28:18;16.83;;;14.83;;
4053;SDS011;2042;47.956;9.222;2022-07-23T04:30:44;18.70;;;13.43;;
4053;SDS011;2042;47.956;9.222;2022-07-23T04:33:10;23.00;;;15.03;;
4053;SDS011;2042;47.956;9.222;2022-07-23T04:35:36;24.00;;;16.70;;
4053;SDS011;2042;47.956;9.222;2022-07-23T04:38:02;23.00;;;17.73;;
4053;SDS011;2042;47.956;9.222;2022-07-23T04:40:28;21.50;;;15.90;;
4053;SDS011;2042;47.956;9.222;2022-07-23T04:42:54;21.20;;;17.33;;
4053;SDS011;2042;47.956;9.222;2022-07-23T04:45:20;24.70;;;17.20;;
4053;SDS011;2042;47.956;9.222;2022-07-23T04:47:48;21.90;;;16.77;;
4053;SDS011;2042;47.956;9.222;2022-07-23T04:50:14;23.33;;;16.20;;
4053;SDS011;2042;47.956;9.222;2022-07-23T04:52:44;20.70;;;14.97;;
4053;SDS011;2042;47.956;9.222;2022-07-23T04:55:09;19.30;;;13.90;;
4053;SDS011;2042;47.956;9.222;2022-07-23T04:57:35;19.83;;;15.40;;
4053;SDS011;2042;47.956;9.222;2022-07-23T05:00:03;19.27;;;15.70;;
4053;SDS011;2042;47.956;9.222;2022-07-23T05:02:29;17.90;;;14.37;;
4053;SDS011;2042;47.956;9.222;2022-07-23T05:04:55;21.87;;;15.10;;
4053;SDS011;2042;47.956;9.222;2022-07-23T05:07:21;19.87;;;14.10;;
4053;SDS011;2042;47.956;9.222;2022-07-23T05:09:46;21.87;;;15.63;;
4053;SDS011;2042;47.956;9.222;2022-07-23T05:12:12;19.90;;;15.67;;
4053;SDS011;2042;47.956;9.222;2022-07-23T05:14:38;20.87;;;12.80;;
4053;SDS011;2042;47.956;9.222;2022-07-23T05:17:04;17.60;;;14.87;;
4053;SDS011;2042;47.956;9.222;2022-07-23T05:19:30;19.33;;;14.80;;
4053;SDS011;2042;47.956;9.222;2022-07-23T05:21:56;21.20;;;16.13;;
4053;SDS011;2042;47.956;9.222;2022-07-23T05:24:22;25.47;;;15.07;;
4053;SDS011;2042;47.956;9.222;2022-07-23T05:26:49;17.80;;;13.43;;
4053;SDS011;2042;47.956;9.222;2022-07-23T05:29:15;18.67;;;14.30;;
4053;SDS011;2042;47.956;9.222;2022-07-23T05:31:41;19.73;;;14.33;;
4053;SDS011;2042;47.956;9.222;2022-07-23T05:34:06;18.27;;;13.37;;
4053;SDS011;2042;47.956;9.222;2022-07-23T05:36:32;16.20;;;12.93;;
4053;SDS011;2042;47.956;9.222;2022-07-23T05:38:58;14.93;;;12.53;;
4053;SDS011;2042;47.956;9.222;2022-07-23T05:41:24;17.67;;;12.33;;
4053;SDS011;2042;47.956;9.222;2022-07-23T05:43:49;17.33;;;13.07;;
4053;SDS011;2042;47.956;9.222;2022-07-23T05:46:15;15.70;;;12.70;;
4053;SDS011;2042;47.956;9.222;2022-07-23T05:48:41;15.33;;;13.67;;
4053;SDS011;2042;47.956;9.222;2022-07-23T05:51:07;22.17;;;15.17;;
4053;SDS011;2042;47.956;9.222;2022-07-23T05:53:34;24.13;;;15.37;;
4053;SDS011;2042;47.956;9.222;2022-07-23T05:56:00;21.77;;;15.27;;
4053;SDS011;2042;47.956;9.222;2022-07-23T05:58:26;22.80;;;14.57;;
4053;SDS011;2042;47.956;9.222;2022-07-23T06:00:53;19.73;;;14.80;;
4053;SDS011;2042;47.956;9.222;2022-07-23T06:03:18;19.50;;;15.37;;
4053;SDS011;2042;47.956;9.222;2022-07-23T06:05:44;19.40;;;14.80;;
4053;SDS011;2042;47.956;9.222;2022-07-23T06:08:10;21.80;;;15.63;;
4053;SDS011;2042;47.956;9.222;2022-07-23T06:10:37;21.43;;;13.53;;
4053;SDS011;2042;47.956;9.222;2022-07-23T06:13:03;17.67;;;14.60;;
4053;SDS011;2042;47.956;9.222;2022-07-23T06:15:29;16.90;;;14.27;;
4053;SDS011;2042;47.956;9.222;2022-07-23T06:17:55;18.70;;;15.13;;
4053;SDS011;2042;47.956;9.222;2022-07-23T06:20:21;22.93;;;16.10;;
4053;SDS011;2042;47.956;9.222;2022-07-23T06:22:47;17.77;;;15.40;;
4053;SDS011;2042;47.956;9.222;2022-07-23T06:25:12;21.07;;;16.70;;
4053;SDS011;2042;47.956;9.222;2022-07-23T06:27:38;18.10;;;15.97;;
4053;SDS011;2042;47.956;9.222;2022-07-23T06:30:04;19.60;;;15.33;;
4053;SDS011;2042;47.956;9.222;2022-07-23T06:32:31;14.70;;;13.20;;
4053;SDS011;2042;47.956;9.222;2022-07-23T06:34:56;14.63;;;12.20;;
4053;SDS011;2042;47.956;9.222;2022-07-23T06:37:22;10.00;;;9.00;;
4053;SDS011;2042;47.956;9.222;2022-07-23T06:39:48;9.30;;;8.17;;
4053;SDS011;2042;47.956;9.222;2022-07-23T06:42:14;8.87;;;8.07;;
4053;SDS011;2042;47.956;9.222;2022-07-23T06:44:40;9.67;;;8.60;;
4053;SDS011;2042;47.956;9.222;2022-07-23T06:47:05;9.23;;;8.33;;
4053;SDS011;2042;47.956;9.222;2022-07-23T06:49:32;8.23;;;7.53;;
4053;SDS011;2042;47.956;9.222;2022-07-23T06:51:57;8.33;;;7.53;;
4053;SDS011;2042;47.956;9.222;2022-07-23T06:54:23;8.43;;;7.63;;
4053;SDS011;2042;47.956;9.222;2022-07-23T06:56:49;8.37;;;7.57;;
4053;SDS011;2042;47.956;9.222;2022-07-23T06:59:15;8.60;;;7.90;;
4053;SDS011;2042;47.956;9.222;2022-07-23T07:01:40;11.93;;;8.80;;
4053;SDS011;2042;47.956;9.222;2022-07-23T07:04:06;8.90;;;8.20;;
4053;SDS011;2042;47.956;9.222;2022-07-23T07:06:32;8.23;;;7.60;;
4053;SDS011;2042;47.956;9.222;2022-07-23T07:08:58;8.50;;;7.90;;
4053;SDS011;2042;47.956;9.222;2022-07-23T07:11:24;9.00;;;8.30;;
4053;SDS011;2042;47.956;9.222;2022-07-23T07:13:50;7.87;;;7.27;;
4053;SDS011;2042;47.956;9.222;2022-07-23T07:16:16;9.07;;;8.40;;
4053;SDS011;2042;47.956;9.222;2022-07-23T07:18:42;9.07;;;8.27;;
4053;SDS011;2042;47.956;9.222;2022-07-23T07:21:07;9.67;;;8.70;;
4053;SDS011;2042;47.956;9.222;2022-07-23T07:23:33;8.90;;;8.20;;
4053;SDS011;2042;47.956;9.222;2022-07-23T07:25:59;9.07;;;8.27;;
4053;SDS011;2042;47.956;9.222;2022-07-23T07:28:25;8.87;;;7.97;;
4053;SDS011;2042;47.956;9.222;2022-07-23T07:30:50;8.10;;;7.40;;
4053;SDS011;2042;47.956;9.222;2022-07-23T07:33:16;7.87;;;7.20;;
4053;SDS011;2042;47.956;9.222;2022-07-23T07:35:42;9.03;;;8.23;;
4053;SDS011;2042;47.956;9.222;2022-07-23T07:38:08;11.50;;;8.57;;
4053;SDS011;2042;47.956;9.222;2022-07-23T07:40:33;9.03;;;8.13;;
4053;SDS011;2042;47.956;9.222;2022-07-23T07:42:59;10.00;;;9.10;;
4053;SDS011;2042;47.956;9.222;2022-07-23T07:45:26;9.73;;;8.87;;
4053;SDS011;2042;47.956;9.222;2022-07-23T07:47:52;9.50;;;8.60;;
4053;SDS011;2042;47.956;9.222;2022-07-23T07:50:18;13.90;;;10.30;;
4053;SDS011;2042;47.956;9.222;2022-07-23T07:52:45;10.43;;;9.53;;
4053;SDS011;2042;47.956;9.222;2022-07-23T07:55:11;9.13;;;8.20;;
4053;SDS011;2042;47.956;9.222;2022-07-23T07:57:37;10.10;;;8.67;;
4053;SDS011;2042;47.956;9.222;2022-07-23T08:00:07;9.83;;;9.03;;
4053;SDS011;2042;47.956;9.222;2022-07-23T08:02:44;9.90;;;9.00;;
4053;SDS011;2042;47.956;9.222;2022-07-23T08:05:12;10.80;;;8.83;;
4053;SDS011;2042;47.956;9.222;2022-07-23T08:07:38;9.87;;;9.07;;
4053;SDS011;2042;47.956;9.222;2022-07-23T08:10:08;8.40;;;7.73;;
4053;SDS011;2042;47.956;9.222;2022-07-23T08:12:51;9.33;;;8.50;;
4053;SDS011;2042;47.956;9.222;2022-07-23T08:15:18;9.73;;;8.83;;
4053;SDS011;2042;47.956;9.222;2022-07-23T08:17:45;9.17;;;8.40;;
4053;SDS011;2042;47.956;9.222;2022-07-23T08:20:12;11.30;;;8.60;;
4053;SDS011;2042;47.956;9.222;2022-07-23T08:22:49;8.63;;;7.83;;
4053;SDS011;2042;47.956;9.222;2022-07-23T08:25:16;9.23;;;8.53;;
4053;SDS011;2042;47.956;9.222;2022-07-23T08:27:45;8.70;;;8.00;;
4053;SDS011;2042;47.956;9.222;2022-07-23T08:30:10;9.87;;;8.87;;
4053;SDS011;2042;47.956;9.222;2022-07-23T08:35:33;8.70;;;7.90;;
4053;SDS011;2042;47.956;9.222;2022-07-23T08:38:01;8.53;;;7.83;;
4053;SDS011;2042;47.956;9.222;2022-07-23T08:40:30;8.03;;;7.33;;
4053;SDS011;2042;47.956;9.222;2022-07-23T08:42:58;8.17;;;7.47;;
4053;SDS011;2042;47.956;9.222;2022-07-23T08:45:25;8.87;;;8.07;;
4053;SDS011;2042;47.956;9.222;2022-07-23T08:47:53;9.80;;;9.10;;
4053;SDS011;2042;47.956;9.222;2022-07-23T08:50:20;9.10;;;8.20;;
4053;SDS011;2042;47.956;9.222;2022-07-23T08:52:48;10.60;;;9.70;;
4053;SDS011;2042;47.956;9.222;2022-07-23T08:55:16;10.30;;;9.50;;
4053;SDS011;2042;47.956;9.222;2022-07-23T08:57:43;9.57;;;8.87;;
4053;SDS011;2042;47.956;9.222;2022-07-23T09:00:11;9.50;;;8.63;;
4053;SDS011;2042;47.956;9.222;2022-07-23T09:02:41;10.40;;;9.50;;
4053;SDS011;2042;47.956;9.222;2022-07-23T09:05:08;11.40;;;10.30;;
4053;SDS011;2042;47.956;9.222;2022-07-23T09:07:36;10.50;;;9.60;;
4053;SDS011;2042;47.956;9.222;2022-07-23T09:10:09;10.27;;;9.37;;
4053;SDS011;2042;47.956;9.222;2022-07-23T09:12:36;11.03;;;10.13;;
4053;SDS011;2042;47.956;9.222;2022-07-23T09:15:03;11.10;;;10.00;;
4053;SDS011;2042;47.956;9.222;2022-07-23T09:17:36;11.63;;;10.60;;
4053;SDS011;2042;47.956;9.222;2022-07-23T09:20:13;10.67;;;9.63;;
4053;SDS011;2042;47.956;9.222;2022-07-23T09:22:47;11.23;;;10.13;;
4053;SDS011;2042;47.956;9.222;2022-07-23T09:25:17;11.13;;;9.23;;
4053;SDS011;2042;47.956;9.222;2022-07-23T09:30:17;10.97;;;9.97;;
4053;SDS011;2042;47.956;9.222;2022-07-23T09:35:43;10.30;;;9.30;;
4053;SDS011;2042;47.956;9.222;2022-07-23T09:38:14;10.23;;;9.00;;
4053;SDS011;2042;47.956;9.222;2022-07-23T09:40:41;9.97;;;9.17;;
4053;SDS011;2042;47.956;9.222;2022-07-23T09:43:06;11.10;;;9.97;;
4053;SDS011;2042;47.956;9.222;2022-07-23T09:45:32;10.60;;;9.80;;
4053;SDS011;2042;47.956;9.222;2022-07-23T09:48:11;10.23;;;9.33;;
4053;SDS011;2042;47.956;9.222;2022-07-23T09:50:37;10.17;;;9.17;;
4053;SDS011;2042;47.956;9.222;2022-07-23T09:53:04;10.00;;;9.20;;
4053;SDS011;2042;47.956;9.222;2022-07-23T09:55:33;10.70;;;9.80;;
4053;SDS011;2042;47.956;9.222;2022-07-23T09:58:05;10.83;;;9.90;;
4053;SDS011;2042;47.956;9.222;2022-07-23T10:00:34;10.27;;;9.47;;
4053;SDS011;2042;47.956;9.222;2022-07-23T10:03:00;10.50;;;9.70;;
4053;SDS011;2042;47.956;9.222;2022-07-23T10:05:28;11.10;;;10.00;;
4053;SDS011;2042;47.956;9.222;2022-07-23T10:07:55;9.90;;;8.90;;
4053;SDS011;2042;47.956;9.222;2022-07-23T10:10:21;11.53;;;10.53;;
4053;SDS011;2042;47.956;9.222;2022-07-23T10:12:51;11.17;;;10.27;;
4053;SDS011;2042;47.956;9.222;2022-07-23T10:15:21;10.30;;;9.50;;
4053;SDS011;2042;47.956;9.222;2022-07-23T10:17:48;10.47;;;9.57;;
4053;SDS011;2042;47.956;9.222;2022-07-23T10:20:13;13.10;;;11.20;;
4053;SDS011;2042;47.956;9.222;2022-07-23T10:22:44;12.00;;;10.73;;
4053;SDS011;2042;47.956;9.222;2022-07-23T10:25:40;10.60;;;9.70;;
4053;SDS011;2042;47.956;9.222;2022-07-23T10:39:41;11.10;;;10.10;;
4053;SDS011;2042;47.956;9.222;2022-07-23T10:42:10;10.60;;;9.77;;
4053;SDS011;2042;47.956;9.222;2022-07-23T10:47:07;10.30;;;9.50;;
4053;SDS011;2042;47.956;9.222;2022-07-23T10:49:46;12.00;;;11.00;;
4053;SDS011;2042;47.956;9.222;2022-07-23T10:57:15;11.30;;;10.40;;
4053;SDS011;2042;47.956;9.222;2022-07-23T11:00:26;11.40;;;10.40;;
4053;SDS011;2042;47.956;9.222;2022-07-23T11:02:37;12.03;;;11.03;;
4053;SDS011;2042;47.956;9.222;2022-07-23T11:05:05;10.97;;;9.83;;
4053;SDS011;2042;47.956;9.222;2022-07-23T11:07:35;12.17;;;10.97;;
4053;SDS011;2042;47.956;9.222;2022-07-23T11:10:03;11.50;;;10.30;;
4053;SDS011;2042;47.956;9.222;2022-07-23T11:22:38;11.60;;;10.40;;
4053;SDS011;2042;47.956;9.222;2022-07-23T11:25:05;11.70;;;10.53;;
4053;SDS011;2042;47.956;9.222;2022-07-23T11:27:42;11.43;;;10.33;;
4053;SDS011;2042;47.956;9.222;2022-07-23T11:30:37;12.30;;;11.37;;
4053;SDS011;2042;47.956;9.222;2022-07-23T11:35:33;10.70;;;9.90;;
4053;SDS011;2042;47.956;9.222;2022-07-23T11:38:20;9.87;;;9.07;;
4053;SDS011;2042;47.956;9.222;2022-07-23T11:40:49;10.47;;;9.67;;
4053;SDS011;2042;47.956;9.222;2022-07-23T11:43:16;10.80;;;9.90;;
4053;SDS011;2042;47.956;9.222;2022-07-23T11:45:47;10.13;;;9.03;;
4053;SDS011;2042;47.956;9.222;2022-07-23T11:48:18;11.10;;;10.00;;
4053;SDS011;2042;47.956;9.222;2022-07-23T11:50:55;9.80;;;9.13;;
4053;SDS011;2042;47.956;9.222;2022-07-23T11:53:26;10.83;;;9.93;;
4053;SDS011;2042;47.956;9.222;2022-07-23T11:55:54;10.43;;;9.63;;
4053;SDS011;2042;47.956;9.222;2022-07-23T11:58:27;10.80;;;9.93;;
4053;SDS011;2042;47.956;9.222;2022-07-23T12:00:54;10.93;;;10.03;;
4053;SDS011;2042;47.956;9.222;2022-07-23T12:03:20;10.03;;;9.20;;
4053;SDS011;2042;47.956;9.222;2022-07-23T12:05:46;10.13;;;9.43;;
4053;SDS011;2042;47.956;9.222;2022-07-23T12:08:12;10.43;;;9.53;;
4053;SDS011;2042;47.956;9.222;2022-07-23T12:10:41;10.17;;;9.30;;
4053;SDS011;2042;47.956;9.222;2022-07-23T12:13:10;11.27;;;10.27;;
4053;SDS011;2042;47.956;9.222;2022-07-23T12:15:48;11.00;;;9.90;;
4053;SDS011;2042;47.956;9.222;2022-07-23T12:18:17;10.93;;;10.03;;
4053;SDS011;2042;47.956;9.222;2022-07-23T12:20:46;11.87;;;10.87;;
4053;SDS011;2042;47.956;9.222;2022-07-23T12:23:14;11.00;;;10.20;;
4053;SDS011;2042;47.956;9.222;2022-07-23T12:25:43;11.07;;;10.17;;
4053;SDS011;2042;47.956;9.222;2022-07-23T12:30:49;11.03;;;10.03;;
4053;SDS011;2042;47.956;9.222;2022-07-23T12:33:26;11.00;;;10.10;;
4053;SDS011;2042;47.956;9.222;2022-07-23T12:35:54;10.80;;;9.97;;
4053;SDS011;2042;47.956;9.222;2022-07-23T12:38:22;10.37;;;9.67;;
4053;SDS011;2042;47.956;9.222;2022-07-23T12:40:55;11.45;;;10.45;;
4053;SDS011;2042;47.956;9.222;2022-07-23T12:45:51;12.23;;;11.33;;
4053;SDS011;2042;47.956;9.222;2022-07-23T13:01:08;10.43;;;9.63;;
4053;SDS011;2042;47.956;9.222;2022-07-23T13:03:38;11.00;;;10.20;;
4053;SDS011;2042;47.956;9.222;2022-07-23T13:06:07;11.90;;;10.70;;
4053;SDS011;2042;47.956;9.222;2022-07-23T13:08:34;10.80;;;10.00;;
4053;SDS011;2042;47.956;9.222;2022-07-23T13:11:02;9.90;;;8.90;;
4053;SDS011;2042;47.956;9.222;2022-07-23T13:13:30;10.90;;;9.83;;
4053;SDS011;2042;47.956;9.222;2022-07-23T13:15:58;9.87;;;9.07;;
4053;SDS011;2042;47.956;9.222;2022-07-23T13:18:24;9.93;;;9.13;;
4053;SDS011;2042;47.956;9.222;2022-07-23T13:20:51;10.07;;;9.30;;
4053;SDS011;2042;47.956;9.222;2022-07-23T13:23:17;10.40;;;9.50;;
4053;SDS011;2042;47.956;9.222;2022-07-23T13:25:44;10.83;;;9.93;;
4053;SDS011;2042;47.956;9.222;2022-07-23T13:28:10;10.70;;;9.63;;
4053;SDS011;2042;47.956;9.222;2022-07-23T13:30:37;10.27;;;9.40;;
4053;SDS011;2042;47.956;9.222;2022-07-23T13:33:04;10.90;;;10.00;;
4053;SDS011;2042;47.956;9.222;2022-07-23T13:35:30;11.37;;;10.47;;
4053;SDS011;2042;47.956;9.222;2022-07-23T13:37:57;11.17;;;10.20;;
4053;SDS011;2042;47.956;9.222;2022-07-23T13:40:22;10.83;;;10.03;;
4053;SDS011;2042;47.956;9.222;2022-07-23T13:42:48;11.00;;;10.17;;
4053;SDS011;2042;47.956;9.222;2022-07-23T13:45:14;11.90;;;10.00;;
4053;SDS011;2042;47.956;9.222;2022-07-23T13:47:40;9.93;;;9.13;;
4053;SDS011;2042;47.956;9.222;2022-07-23T13:50:06;11.60;;;10.80;;
4053;SDS011;2042;47.956;9.222;2022-07-23T13:52:32;9.87;;;9.20;;
4053;SDS011;2042;47.956;9.222;2022-07-23T13:54:59;9.80;;;9.10;;
4053;SDS011;2042;47.956;9.222;2022-07-23T13:57:28;10.10;;;9.27;;
4053;SDS011;2042;47.956;9.222;2022-07-23T13:59:53;9.82;;;8.95;;
4053;SDS011;2042;47.956;9.222;2022-07-23T14:02:19;10.15;;;9.15;;
4053;SDS011;2042;47.956;9.222;2022-07-23T14:04:45;10.82;;;9.95;;
4053;SDS011;2042;47.956;9.222;2022-07-23T14:07:10;9.68;;;9.05;;
4053;SDS011;2042;47.956;9.222;2022-07-23T14:09:36;9.75;;;9.13;;
4053;SDS011;2042;47.956;9.222;2022-07-23T14:12:03;10.52;;;9.75;;
4053;SDS011;2042;47.956;9.222;2022-07-23T14:14:29;10.35;;;9.50;;
4053;SDS011;2042;47.956;9.222;2022-07-23T14:16:55;10.27;;;9.48;;
4053;SDS011;2042;47.956;9.222;2022-07-23T14:19:22;9.43;;;8.73;;
4053;SDS011;2042;47.956;9.222;2022-07-23T14:21:48;10.57;;;9.77;;
4053;SDS011;2042;47.956;9.222;2022-07-23T14:24:14;10.18;;;9.48;;
4053;SDS011;2042;47.956;9.222;2022-07-23T14:26:40;9.43;;;8.82;;
4053;SDS011;2042;47.956;9.222;2022-07-23T14:29:06;9.60;;;9.00;;
4053;SDS011;2042;47.956;9.222;2022-07-23T14:31:32;10.07;;;9.23;;
4053;SDS011;2042;47.956;9.222;2022-07-23T14:33:58;10.57;;;9.87;;
4053;SDS011;2042;47.956;9.222;2022-07-23T14:36:24;10.10;;;9.30;;
4053;SDS011;2042;47.956;9.222;2022-07-23T14:38:50;10.67;;;9.87;;
4053;SDS011;2042;47.956;9.222;2022-07-23T14:41:16;10.60;;;9.80;;
4053;SDS011;2042;47.956;9.222;2022-07-23T14:43:42;11.70;;;10.90;;
4053;SDS011;2042;47.956;9.222;2022-07-23T14:46:08;10.60;;;9.80;;
4053;SDS011;2042;47.956;9.222;2022-07-23T14:48:34;11.23;;;10.23;;
4053;SDS011;2042;47.956;9.222;2022-07-23T14:51:02;11.37;;;10.53;;
4053;SDS011;2042;47.956;9.222;2022-07-23T14:53:28;10.90;;;10.00;;
4053;SDS011;2042;47.956;9.222;2022-07-23T14:55:54;10.60;;;9.77;;
4053;SDS011;2042;47.956;9.222;2022-07-23T14:58:22;10.97;;;10.10;;
4053;SDS011;2042;47.956;9.222;2022-07-23T15:00:49;11.67;;;10.83;;
4053;SDS011;2042;47.956;9.222;2022-07-23T15:03:15;11.93;;;10.93;;
4053;SDS011;2042;47.956;9.222;2022-07-23T15:05:41;10.97;;;9.97;;
4053;SDS011;2042;47.956;9.222;2022-07-23T15:08:07;11.67;;;10.73;;
4053;SDS011;2042;47.956;9.222;2022-07-23T15:10:33;13.13;;;12.03;;
4053;SDS011;2042;47.956;9.222;2022-07-23T15:12:59;11.03;;;10.13;;
4053;SDS011;2042;47.956;9.222;2022-07-23T15:15:25;11.90;;;10.90;;
4053;SDS011;2042;47.956;9.222;2022-07-23T15:17:50;11.67;;;10.47;;
4053;SDS011;2042;47.956;9.222;2022-07-23T15:20:16;12.20;;;9.90;;
4053;SDS011;2042;47.956;9.222;2022-07-23T15:22:42;11.47;;;10.53;;
4053;SDS011;2042;47.956;9.222;2022-07-23T15:25:10;10.80;;;10.00;;
4053;SDS011;2042;47.956;9.222;2022-07-23T15:27:36;11.50;;;10.50;;
4053;SDS011;2042;47.956;9.222;2022-07-23T15:30:03;11.30;;;10.30;;
4053;SDS011;2042;47.956;9.222;2022-07-23T15:32:29;10.97;;;10.07;;
4053;SDS011;2042;47.956;9.222;2022-07-23T15:34:55;11.10;;;10.20;;
4053;SDS011;2042;47.956;9.222;2022-07-23T15:37:21;10.40;;;9.50;;
4053;SDS011;2042;47.956;9.222;2022-07-23T15:39:50;10.83;;;10.03;;
4053;SDS011;2042;47.956;9.222;2022-07-23T15:42:16;10.57;;;9.37;;
4053;SDS011;2042;47.956;9.222;2022-07-23T15:44:42;9.20;;;8.40;;
4053;SDS011;2042;47.956;9.222;2022-07-23T15:47:12;9.33;;;8.63;;
4053;SDS011;2042;47.956;9.222;2022-07-23T15:49:40;10.17;;;9.20;;
4053;SDS011;2042;47.956;9.222;2022-07-23T15:52:07;9.70;;;9.00;;